createdAt,value
2023-03-18T00:00:19.419Z,95896.25
2023-03-18T00:02:58.329Z,95903.84
2023-03-18T00:05:27.032Z,95904.66
2023-03-18T00:07:55.464Z,95898.56
2023-03-18T00:10:24.135Z,95906.28
2023-03-18T00:13:04.569Z,95903.97
2023-03-18T00:15:34.416Z,95905.28
2023-03-18T00:18:02.842Z,95905.59
2023-03-18T00:20:38.798Z,95908.22
2023-03-18T00:23:08.499Z,95917.59
2023-03-18T00:25:37.597Z,95919.41
2023-03-18T00:28:07.557Z,95916.63
2023-03-18T00:30:39.901Z,95914.66
2023-03-18T00:33:08.380Z,95919.41
2023-03-18T00:35:37.833Z,95911.50
2023-03-18T00:38:08.884Z,95916.25
2023-03-18T00:40:54.150Z,95919.31
2023-03-18T00:43:29.540Z,95915.56
2023-03-18T00:45:59.360Z,95916.41
2023-03-18T00:48:27.891Z,95924.97
2023-03-18T00:50:56.319Z,95921.38
2023-03-18T00:53:26.148Z,95918.22
2023-03-18T00:55:55.340Z,95919.88
2023-03-18T00:58:24.637Z,95917.72
2023-03-18T01:00:53.088Z,95921.00
2023-03-18T01:03:25.831Z,95926.31
2023-03-18T01:05:54.587Z,95921.88
2023-03-18T01:08:23.071Z,95926.81
2023-03-18T01:10:52.007Z,95916.78
2023-03-18T01:13:20.540Z,95918.94
2023-03-18T01:15:48.957Z,95919.41
2023-03-18T01:18:18.406Z,95915.31
2023-03-18T01:20:48.757Z,95912.19
2023-03-18T01:23:17.794Z,95915.13
2023-03-18T01:25:46.179Z,95910.56
2023-03-18T01:28:15.624Z,95918.13
2023-03-18T01:30:44.858Z,95922.34
2023-03-18T01:33:13.448Z,95922.34
2023-03-18T01:35:42.083Z,95916.94
2023-03-18T01:38:12.557Z,95917.94
2023-03-18T01:40:41.670Z,95916.13
2023-03-18T01:43:18.154Z,95914.66
2023-03-18T01:45:50.778Z,95917.13
2023-03-18T01:48:20.837Z,95915.63
2023-03-18T01:50:53.769Z,95920.38
2023-03-18T01:53:25.777Z,95911.84
2023-03-18T01:55:55.083Z,95922.22
2023-03-18T01:58:28.132Z,95920.22
2023-03-18T02:01:00.935Z,95922.03
2023-03-18T02:03:29.762Z,95923.84
2023-03-18T02:05:58.437Z,95923.16
2023-03-18T02:08:28.157Z,95932.22
2023-03-18T02:10:56.986Z,95925.63
2023-03-18T02:13:27.412Z,95927.88
2023-03-18T02:16:03.586Z,95921.28
2023-03-18T02:18:36.531Z,95920.63
2023-03-18T02:21:17.067Z,95925.06
2023-03-18T02:23:56.706Z,95926.03
2023-03-18T02:26:33.399Z,95926.75
2023-03-18T02:29:06.915Z,95935.91
2023-03-18T02:31:38.062Z,95947.03
2023-03-18T02:34:08.595Z,95937.97
2023-03-18T02:36:37.800Z,95949.84
2023-03-18T02:39:06.731Z,95946.59
2023-03-18T02:41:37.610Z,95950.50
2023-03-18T02:44:07.443Z,95957.25
2023-03-18T02:46:44.143Z,95949.22
2023-03-18T02:49:12.467Z,95960.25
2023-03-18T02:51:41.949Z,95962.66
2023-03-18T02:54:14.053Z,95960.03
2023-03-18T02:56:43.865Z,95956.28
2023-03-18T02:59:14.310Z,95958.84
2023-03-18T03:01:44.951Z,95962.13
2023-03-18T03:04:13.980Z,95969.88
2023-03-18T03:06:43.249Z,95972.66
2023-03-18T03:09:13.934Z,95975.84
2023-03-18T03:11:43.417Z,95993.44
2023-03-18T03:14:14.312Z,95989.16
2023-03-18T03:16:44.734Z,95990.63
2023-03-18T03:19:13.207Z,95984.25
2023-03-18T03:21:42.434Z,95988.47
2023-03-18T03:24:11.014Z,95998.84
2023-03-18T03:26:39.446Z,95999.13
2023-03-18T03:29:07.962Z,96004.03
2023-03-18T03:31:37.679Z,96008.44
2023-03-18T03:34:10.806Z,96002.38
2023-03-18T03:36:39.707Z,96015.22
2023-03-18T03:39:08.277Z,96003.78
2023-03-18T03:41:36.818Z,95996.84
2023-03-18T03:44:05.215Z,96007.63
2023-03-18T03:46:33.623Z,96019.03
2023-03-18T03:49:03.866Z,96010.31
2023-03-18T03:51:32.408Z,96019.03
2023-03-18T03:54:00.818Z,96019.88
2023-03-18T03:56:29.200Z,96020.53
2023-03-18T03:58:57.661Z,96018.72
2023-03-18T04:01:27.248Z,96028.44
2023-03-18T04:03:55.822Z,96020.69
2023-03-18T04:06:25.843Z,96026.47
2023-03-18T04:08:54.199Z,96025.78
2023-03-18T04:11:22.652Z,96029.38
2023-03-18T04:13:51.208Z,96027.91
2023-03-18T04:16:19.684Z,96034.31
2023-03-18T04:18:48.279Z,96025.22
2023-03-18T04:21:16.752Z,96025.91
2023-03-18T04:23:47.679Z,96025.91
2023-03-18T04:26:16.464Z,96030.25
2023-03-18T04:28:50.030Z,96032.53
2023-03-18T04:31:18.743Z,96028.91
2023-03-18T04:33:47.631Z,96036.66
2023-03-18T04:36:16.561Z,96028.78
2023-03-18T04:38:46.372Z,96027.78
2023-03-18T04:41:14.713Z,96024.84
2023-03-18T04:43:44.616Z,96033.25
2023-03-18T04:46:13.207Z,96035.28
2023-03-18T04:48:42.099Z,96034.66
2023-03-18T04:51:10.673Z,96037.81
2023-03-18T04:53:39.807Z,96033.88
2023-03-18T04:56:09.922Z,96037.03
2023-03-18T04:58:38.248Z,96038.00
2023-03-18T05:01:07.025Z,96035.38
2023-03-18T05:03:40.306Z,96027.19
2023-03-18T05:06:09.560Z,96032.13
2023-03-18T05:08:38.229Z,96027.41
2023-03-18T05:11:06.576Z,96033.16
2023-03-18T05:13:36.283Z,96031.19
2023-03-18T05:16:05.016Z,96027.72
2023-03-18T05:18:33.709Z,96028.25
2023-03-18T05:21:02.775Z,96023.81
2023-03-18T05:23:31.121Z,96020.88
2023-03-18T05:25:59.760Z,96028.44
2023-03-18T05:28:28.701Z,96028.94
2023-03-18T05:30:58.449Z,96020.75
2023-03-18T05:33:27.058Z,96025.53
2023-03-18T05:35:55.549Z,96026.06
2023-03-18T05:38:24.189Z,96025.75
2023-03-18T05:40:52.684Z,96028.91
2023-03-18T05:43:21.841Z,96029.38
2023-03-18T05:45:51.255Z,96030.75
2023-03-18T05:48:21.298Z,96035.66
2023-03-18T05:50:51.334Z,96031.72
2023-03-18T05:53:19.812Z,96035.69
2023-03-18T05:55:48.739Z,96036.06
2023-03-18T05:58:17.130Z,96035.41
2023-03-18T06:00:45.736Z,96036.72
2023-03-18T06:03:14.017Z,96037.09
2023-03-18T06:05:43.997Z,96035.78
2023-03-18T06:08:12.932Z,96033.81
2023-03-18T06:10:41.575Z,96039.59
2023-03-18T06:13:12.141Z,96038.44
2023-03-18T06:15:40.530Z,96041.41
2023-03-18T06:18:09.405Z,96037.63
2023-03-18T06:20:38.061Z,96040.25
2023-03-18T06:23:07.877Z,96041.09
2023-03-18T06:25:36.551Z,96044.56
2023-03-18T06:28:05.315Z,96041.78
2023-03-18T06:30:33.730Z,96040.44
2023-03-18T06:33:02.443Z,96042.91
2023-03-18T06:35:35.612Z,96040.97
2023-03-18T06:38:05.742Z,96046.72
2023-03-18T06:40:35.593Z,96046.28
2023-03-18T06:43:08.350Z,96052.06
2023-03-18T06:45:36.760Z,96049.88
2023-03-18T06:48:06.005Z,96052.22
2023-03-18T06:50:34.567Z,96050.88
2023-03-18T06:53:02.963Z,96048.91
2023-03-18T06:55:31.660Z,96050.06
2023-03-18T06:58:01.530Z,96041.84
2023-03-18T07:00:32.052Z,96057.50
2023-03-18T07:03:01.447Z,96048.28
2023-03-18T07:05:30.831Z,96052.56
2023-03-18T07:07:59.606Z,96052.22
2023-03-18T07:10:31.030Z,96045.94
2023-03-18T07:13:00.217Z,96051.72
2023-03-18T07:15:30.516Z,96057.34
2023-03-18T07:18:00.571Z,96053.38
2023-03-18T07:20:29.877Z,96059.97
2023-03-18T07:22:59.270Z,96059.00
2023-03-18T07:25:27.780Z,96060.97
2023-03-18T07:27:56.468Z,96046.28
2023-03-18T07:30:24.838Z,96062.44
2023-03-18T07:32:55.634Z,96058.16
2023-03-18T07:35:24.282Z,96048.41
2023-03-18T07:37:54.273Z,96050.19
2023-03-18T07:40:22.868Z,96051.97
2023-03-18T07:42:51.975Z,96052.81
2023-03-18T07:45:20.459Z,96056.91
2023-03-18T07:47:48.985Z,96055.88
2023-03-18T07:50:21.911Z,96057.50
2023-03-18T07:52:50.250Z,96057.94
2023-03-18T07:55:19.904Z,96058.53
2023-03-18T07:57:49.124Z,96060.81
2023-03-18T08:00:18.852Z,96065.72
2023-03-18T08:02:47.968Z,96054.94
2023-03-18T08:05:16.758Z,96063.03
2023-03-18T08:07:46.867Z,96060.50
2023-03-18T08:10:15.967Z,96060.44
2023-03-18T08:12:52.665Z,96057.94
2023-03-18T08:15:22.066Z,96059.88
2023-03-18T08:17:50.611Z,96059.31
2023-03-18T08:20:19.297Z,96072.22
2023-03-18T08:22:50.111Z,96065.91
2023-03-18T08:25:18.848Z,96065.19
2023-03-18T08:27:47.251Z,96069.44
2023-03-18T08:30:16.601Z,96073.19
2023-03-18T08:32:46.398Z,96063.53
2023-03-18T08:35:14.948Z,96067.78
2023-03-18T08:37:43.463Z,96059.75
2023-03-18T08:40:14.475Z,96058.28
2023-03-18T08:42:42.903Z,96062.16
2023-03-18T08:45:12.335Z,96060.69
2023-03-18T08:47:44.599Z,96065.72
2023-03-18T08:50:17.262Z,96058.06
2023-03-18T08:52:46.139Z,96063.63
2023-03-18T08:55:16.215Z,96056.94
2023-03-18T08:57:44.634Z,96066.47
2023-03-18T09:00:15.461Z,96059.25
2023-03-18T09:02:43.840Z,96051.19
2023-03-18T09:05:12.363Z,96043.94
2023-03-18T09:07:41.108Z,96045.88
2023-03-18T09:10:12.908Z,96047.38
2023-03-18T09:12:43.344Z,96043.44
2023-03-18T09:15:13.672Z,96040.66
2023-03-18T09:17:59.958Z,96049.34
2023-03-18T09:20:32.802Z,96049.06
2023-03-18T09:23:02.341Z,96043.44
2023-03-18T09:25:31.106Z,96051.72
2023-03-18T09:28:01.920Z,96052.59
2023-03-18T09:30:30.755Z,96053.66
2023-03-18T09:32:59.701Z,96054.53
2023-03-18T09:35:29.134Z,96043.97
2023-03-18T09:37:57.558Z,96037.91
2023-03-18T09:40:29.322Z,96045.94
2023-03-18T09:43:15.786Z,96034.53
2023-03-18T09:45:58.280Z,96037.03
2023-03-18T09:48:46.185Z,96031.34
2023-03-18T09:51:28.432Z,96033.66
2023-03-18T09:54:02.586Z,96026.38
2023-03-18T09:56:34.922Z,96027.00
2023-03-18T09:59:13.096Z,96021.50
2023-03-18T10:01:44.490Z,96023.19
2023-03-18T10:04:18.575Z,96024.66
2023-03-18T10:06:49.043Z,96028.78
2023-03-18T10:09:26.323Z,96029.84
2023-03-18T10:12:02.671Z,96034.16
2023-03-18T10:14:39.805Z,96038.66
2023-03-18T10:17:18.315Z,96044.19
2023-03-18T10:19:50.801Z,96043.81
2023-03-18T10:22:50.407Z,96045.28
2023-03-18T10:25:27.131Z,96035.84
2023-03-18T10:28:10.129Z,96041.00
2023-03-18T10:30:54.905Z,96040.81
2023-03-18T10:33:35.007Z,96036.53
2023-03-18T10:36:12.868Z,96031.41
2023-03-18T10:38:46.024Z,96035.09
2023-03-18T10:41:23.488Z,96028.75
2023-03-18T10:43:55.761Z,96027.31
2023-03-18T10:46:27.050Z,96037.56
2023-03-18T10:48:59.174Z,96020.94
2023-03-18T10:51:33.822Z,96017.00
2023-03-18T10:54:09.654Z,96013.31
2023-03-18T10:56:40.344Z,96012.72
2023-03-18T10:59:25.039Z,96011.84
2023-03-18T11:01:59.355Z,96005.88
2023-03-18T11:04:30.709Z,96000.09
2023-03-18T11:07:02.725Z,96000.03
2023-03-18T11:09:33.452Z,96004.91
2023-03-18T11:12:05.598Z,95994.22
2023-03-18T11:14:37.320Z,95996.03
2023-03-18T11:17:22.013Z,95993.72
2023-03-18T11:20:00.944Z,95997.31
2023-03-18T11:22:32.167Z,95987.81
2023-03-18T11:25:13.255Z,95985.69
2023-03-18T11:27:44.043Z,95986.69
2023-03-18T11:30:32.781Z,95980.66
2023-03-18T11:33:08.185Z,95981.06
2023-03-18T11:35:42.023Z,95981.75
2023-03-18T11:38:16.904Z,95972.34
2023-03-18T11:40:46.385Z,95970.59
2023-03-18T11:43:19.911Z,95969.41
2023-03-18T11:45:52.236Z,95959.38
2023-03-18T11:48:30.424Z,95966.09
2023-03-18T11:51:25.215Z,95950.59
2023-03-18T11:54:16.498Z,95948.63
2023-03-18T11:56:48.703Z,95941.25
2023-03-18T11:59:39.082Z,95935.72
2023-03-18T12:02:35.381Z,95925.72
2023-03-18T12:05:35.409Z,95915.25
2023-03-18T12:08:14.848Z,95907.56
2023-03-18T12:10:48.565Z,95905.41
2023-03-18T12:13:41.019Z,95902.03
2023-03-18T12:16:18.700Z,95897.25
2023-03-18T12:19:00.636Z,95896.81
2023-03-18T12:21:45.228Z,95896.25
2023-03-18T12:24:26.359Z,95890.91
2023-03-18T12:27:04.784Z,95888.84
2023-03-18T12:29:53.827Z,95890.22
2023-03-18T12:32:29.707Z,95887.78
2023-03-18T12:35:22.258Z,95875.53
2023-03-18T12:38:08.955Z,95870.94
2023-03-18T12:40:53.208Z,95865.91
2023-03-18T12:43:45.394Z,95864.16
2023-03-18T12:46:23.690Z,95860.28
2023-03-18T12:48:59.156Z,95857.59
2023-03-18T12:51:32.131Z,95857.13
2023-03-18T12:54:10.721Z,95858.16
2023-03-18T12:56:45.530Z,95860.50
2023-03-18T12:59:20.262Z,95857.59
2023-03-18T13:01:58.459Z,95855.44
2023-03-18T13:04:31.091Z,95861.09
2023-03-18T13:07:04.819Z,95859.47
2023-03-18T13:09:40.161Z,95858.47
2023-03-18T13:12:13.525Z,95861.66
2023-03-18T13:14:59.645Z,95852.59
2023-03-18T13:17:33.026Z,95848.38
2023-03-18T13:20:04.411Z,95847.03
2023-03-18T13:23:07.303Z,95854.41
2023-03-18T13:25:42.195Z,95847.38
2023-03-18T13:28:39.767Z,95853.41
2023-03-18T13:31:21.441Z,95848.03
2023-03-18T13:34:14.936Z,95844.59
2023-03-18T13:37:07.359Z,95849.50
2023-03-18T13:40:00.421Z,95838.91
2023-03-18T13:42:31.544Z,95841.94
2023-03-18T13:45:07.721Z,95851.31
2023-03-18T13:47:38.907Z,95846.00
2023-03-18T13:50:25.379Z,95842.59
2023-03-18T13:52:56.311Z,95836.50
2023-03-18T13:55:33.247Z,95830.16
2023-03-18T13:58:22.791Z,95831.28
2023-03-18T14:01:34.550Z,95827.88
2023-03-18T14:04:33.797Z,95823.22
2023-03-18T14:07:17.107Z,95824.53
2023-03-18T14:09:51.638Z,95828.59
2023-03-18T14:12:41.488Z,95827.88
2023-03-18T14:15:39.899Z,95829.59
2023-03-18T14:18:27.652Z,95831.75
2023-03-18T14:21:01.837Z,95829.63
2023-03-18T14:23:39.529Z,95814.06
2023-03-18T14:26:19.428Z,95811.69
2023-03-18T14:28:50.603Z,95805.59
2023-03-18T14:31:52.314Z,95802.06
2023-03-18T14:34:26.691Z,95806.88
2023-03-18T14:37:27.650Z,95802.06
2023-03-18T14:40:01.687Z,95803.91
2023-03-18T14:42:35.716Z,95801.50
2023-03-18T14:45:19.380Z,95801.69
2023-03-18T14:47:51.765Z,95786.72
2023-03-18T14:50:30.102Z,95788.47
2023-03-18T14:53:05.074Z,95781.44
2023-03-18T14:55:36.021Z,95784.97
2023-03-18T14:58:05.252Z,95771.19
2023-03-18T15:00:36.277Z,95781.50
2023-03-18T15:03:09.370Z,95775.00
2023-03-18T15:05:40.958Z,95777.22
2023-03-18T15:08:15.184Z,95768.81
2023-03-18T15:10:47.465Z,95774.66
2023-03-18T15:13:18.389Z,95770.28
2023-03-18T15:15:47.066Z,95773.19
2023-03-18T15:18:26.471Z,95773.16
2023-03-18T15:20:59.666Z,95773.47
2023-03-18T15:23:33.616Z,95781.72
2023-03-18T15:26:04.105Z,95784.94
2023-03-18T15:28:33.740Z,95785.00
2023-03-18T15:31:02.580Z,95784.56
2023-03-18T15:33:36.685Z,95788.06
2023-03-18T15:36:07.781Z,95787.59
2023-03-18T15:38:36.793Z,95788.41
2023-03-18T15:41:08.199Z,95788.63
2023-03-18T15:43:42.317Z,95782.22
2023-03-18T15:46:18.825Z,95783.75
2023-03-18T15:48:55.801Z,95790.06
2023-03-18T15:51:27.998Z,95786.16
2023-03-18T15:53:59.223Z,95785.13
2023-03-18T15:56:31.412Z,95783.06
2023-03-18T15:59:06.448Z,95781.09
2023-03-18T16:01:36.040Z,95779.59
2023-03-18T16:04:07.577Z,95781.22
2023-03-18T16:06:38.485Z,95781.25
2023-03-18T16:09:18.314Z,95785.59
2023-03-18T16:11:49.548Z,95783.94
2023-03-18T16:14:20.040Z,95791.50
2023-03-18T16:16:48.797Z,95784.63
2023-03-18T16:19:25.144Z,95786.63
2023-03-18T16:21:54.305Z,95787.53
2023-03-18T16:24:22.941Z,95792.19
2023-03-18T16:26:53.005Z,95794.16
2023-03-18T16:29:27.821Z,95797.41
2023-03-18T16:31:56.459Z,95802.28
2023-03-18T16:34:26.334Z,95803.16
2023-03-18T16:36:55.336Z,95799.81
2023-03-18T16:39:27.235Z,95802.56
2023-03-18T16:41:56.429Z,95803.66
2023-03-18T16:44:24.801Z,95802.72
2023-03-18T16:46:55.440Z,95805.25
2023-03-18T16:49:30.784Z,95805.34
2023-03-18T16:51:59.482Z,95799.50
2023-03-18T16:54:30.294Z,95797.94
2023-03-18T16:57:01.584Z,95803.38
2023-03-18T16:59:32.701Z,95801.81
2023-03-18T17:02:01.280Z,95805.63
2023-03-18T17:04:32.985Z,95806.97
2023-03-18T17:07:04.557Z,95806.44
2023-03-18T17:09:33.025Z,95808.38
2023-03-18T17:12:05.225Z,95809.72
2023-03-18T17:14:37.577Z,95823.56
2023-03-18T17:17:09.405Z,95831.22
2023-03-18T17:19:40.184Z,95843.00
2023-03-18T17:22:20.960Z,95845.38
2023-03-18T17:24:49.862Z,95852.69
2023-03-18T17:27:22.079Z,95847.00
2023-03-18T17:29:51.087Z,95849.72
2023-03-18T17:32:22.119Z,95843.63
2023-03-18T17:34:53.815Z,95843.84
2023-03-18T17:37:23.523Z,95857.47
2023-03-18T17:39:51.908Z,95859.78
2023-03-18T17:42:29.705Z,95863.34
2023-03-18T17:45:03.329Z,95870.00
2023-03-18T17:47:34.490Z,95872.91
2023-03-18T17:50:05.565Z,95867.38
2023-03-18T17:52:34.135Z,95872.31
2023-03-18T17:55:03.869Z,95872.53
2023-03-18T17:57:42.215Z,95868.22
2023-03-18T18:00:16.835Z,95853.69
2023-03-18T18:02:45.711Z,95851.44
2023-03-18T18:05:17.528Z,95852.88
2023-03-18T18:07:46.527Z,95854.75
2023-03-18T18:10:17.221Z,95867.47
2023-03-18T18:12:48.542Z,95865.03
2023-03-18T18:15:20.749Z,95861.16
2023-03-18T18:17:49.421Z,95863.41
2023-03-18T18:20:20.870Z,95859.31
2023-03-18T18:22:54.950Z,95863.41
2023-03-18T18:25:30.145Z,95850.28
2023-03-18T18:27:58.631Z,95864.44
2023-03-18T18:30:28.252Z,95867.28
2023-03-18T18:32:56.761Z,95880.59
2023-03-18T18:35:26.974Z,95871.56
2023-03-18T18:37:55.390Z,95883.63
2023-03-18T18:40:26.971Z,95878.09
2023-03-18T18:42:55.441Z,95877.28
2023-03-18T18:45:24.181Z,95879.91
2023-03-18T18:47:52.627Z,95877.06
2023-03-18T18:50:25.180Z,95875.59
2023-03-18T18:52:55.694Z,95875.19
2023-03-18T18:55:24.607Z,95875.19
2023-03-18T18:57:53.177Z,95885.44
2023-03-18T19:00:24.105Z,95884.78
2023-03-18T19:02:56.362Z,95886.19
2023-03-18T19:05:24.811Z,95884.97
2023-03-18T19:07:56.248Z,95887.78
2023-03-18T19:10:24.904Z,95892.44
2023-03-18T19:12:53.445Z,95898.78
2023-03-18T19:15:22.507Z,95898.72
2023-03-18T19:17:51.407Z,95900.06
2023-03-18T19:20:29.720Z,95892.06
2023-03-18T19:22:59.470Z,95893.31
2023-03-18T19:25:28.409Z,95887.59
2023-03-18T19:27:58.114Z,95878.63
2023-03-18T19:30:27.063Z,95888.00
2023-03-18T19:32:55.517Z,95870.41
2023-03-18T19:35:23.952Z,95884.72
2023-03-18T19:37:52.400Z,95883.66
2023-03-18T19:40:26.426Z,95880.59
2023-03-18T19:42:55.358Z,95895.09
2023-03-18T19:45:23.750Z,95899.91
2023-03-18T19:47:52.463Z,95903.16
2023-03-18T19:50:23.017Z,95901.47
2023-03-18T19:52:51.654Z,95912.38
2023-03-18T19:55:22.390Z,95913.88
2023-03-18T19:57:53.187Z,95918.88
2023-03-18T20:00:25.549Z,95912.34
2023-03-18T20:02:54.237Z,95909.56
2023-03-18T20:05:24.613Z,95918.28
2023-03-18T20:07:53.028Z,95919.47
2023-03-18T20:10:22.224Z,95916.44
2023-03-18T20:12:52.708Z,95909.94
2023-03-18T20:15:24.736Z,95915.25
2023-03-18T20:17:54.142Z,95907.84
2023-03-18T20:20:24.348Z,95908.03
2023-03-18T20:22:55.059Z,95907.81
2023-03-18T20:25:26.796Z,95913.53
2023-03-18T20:27:58.077Z,95908.13
2023-03-18T20:30:30.108Z,95912.84
2023-03-18T20:33:00.016Z,95921.16
2023-03-18T20:35:30.679Z,95916.72
2023-03-18T20:38:01.773Z,95917.88
2023-03-18T20:40:31.511Z,95916.06
2023-03-18T20:43:01.587Z,95916.00
2023-03-18T20:45:30.206Z,95922.88
2023-03-18T20:47:58.715Z,95907.22
2023-03-18T20:50:29.742Z,95922.25
2023-03-18T20:52:58.741Z,95915.59
2023-03-18T20:55:30.661Z,95909.09
2023-03-18T20:58:01.871Z,95903.44
2023-03-18T21:00:33.101Z,95905.91
2023-03-18T21:03:05.445Z,95898.66
2023-03-18T21:05:34.073Z,95910.91
2023-03-18T21:08:02.813Z,95907.47
2023-03-18T21:10:31.369Z,95909.50
2023-03-18T21:13:01.212Z,95906.78
2023-03-18T21:15:29.947Z,95899.47
2023-03-18T21:17:58.497Z,95908.06
2023-03-18T21:20:30.044Z,95915.81
2023-03-18T21:22:58.430Z,95921.19
2023-03-18T21:25:29.192Z,95918.47
2023-03-18T21:27:58.397Z,95914.16
2023-03-18T21:30:28.402Z,95925.41
2023-03-18T21:32:56.861Z,95925.41
2023-03-18T21:35:27.166Z,95915.81
2023-03-18T21:37:55.621Z,95925.22
2023-03-18T21:40:26.249Z,95917.38
2023-03-18T21:42:54.808Z,95918.66
2023-03-18T21:45:24.709Z,95915.81
2023-03-18T21:47:54.464Z,95912.72
2023-03-18T21:50:25.368Z,95906.13
2023-03-18T21:52:55.050Z,95901.88
2023-03-18T21:55:23.925Z,95898.75
2023-03-18T21:57:52.377Z,95900.22
2023-03-18T22:00:22.442Z,95897.56
2023-03-18T22:02:51.556Z,95899.41
2023-03-18T22:05:22.990Z,95899.75
2023-03-18T22:07:51.907Z,95892.19
2023-03-18T22:10:23.606Z,95898.41
2023-03-18T22:12:52.134Z,95886.88
2023-03-18T22:15:37.795Z,95897.28
2023-03-18T22:18:07.483Z,95893.16
2023-03-18T22:20:38.279Z,95894.66
2023-03-18T22:23:18.100Z,95899.13
2023-03-18T22:25:48.363Z,95900.19
2023-03-18T22:28:16.930Z,95904.91
2023-03-18T22:30:47.309Z,95899.19
2023-03-18T22:33:20.901Z,95902.25
2023-03-18T22:35:51.015Z,95901.56
2023-03-18T22:38:21.191Z,95897.56
2023-03-18T22:40:51.742Z,95904.56
2023-03-18T22:43:31.844Z,95904.91
2023-03-18T22:46:01.758Z,95898.22
2023-03-18T22:48:30.967Z,95903.91
2023-03-18T22:51:01.084Z,95905.25
2023-03-18T22:53:31.833Z,95901.16
2023-03-18T22:56:03.121Z,95902.31
2023-03-18T22:58:31.517Z,95896.03
2023-03-18T23:00:59.964Z,95905.22
2023-03-18T23:03:31.042Z,95896.00
2023-03-18T23:06:02.369Z,95896.41
2023-03-18T23:08:31.140Z,95899.53
2023-03-18T23:11:02.066Z,95898.66
2023-03-18T23:13:34.956Z,95901.78
2023-03-18T23:16:05.211Z,95904.81
2023-03-18T23:18:34.152Z,95897.91
2023-03-18T23:21:03.978Z,95900.91
2023-03-18T23:23:32.405Z,95908.25
2023-03-18T23:26:01.994Z,95910.84
2023-03-18T23:28:33.062Z,95909.66
2023-03-18T23:31:03.110Z,95908.38
2023-03-18T23:33:32.019Z,95907.44
2023-03-18T23:36:00.557Z,95902.72
2023-03-18T23:38:30.450Z,95900.00
2023-03-18T23:40:58.822Z,95909.06
2023-03-18T23:43:27.256Z,95907.19
2023-03-18T23:45:55.993Z,95910.13
2023-03-18T23:48:24.593Z,95919.00
2023-03-18T23:50:53.708Z,95909.31
2023-03-18T23:53:22.213Z,95909.88
2023-03-18T23:55:51.951Z,95915.19
2023-03-18T23:58:20.273Z,95919.19
